createdAt,value
2022-09-17T00:00:38.120Z,100754.56
2022-09-17T00:03:07.384Z,100747.66
2022-09-17T00:05:34.370Z,100740.25
2022-09-17T00:08:01.139Z,100751.72
2022-09-17T00:10:27.761Z,100758.66
2022-09-17T00:12:54.443Z,100761.72
2022-09-17T00:15:21.137Z,100771.28
2022-09-17T00:17:47.753Z,100768.25
2022-09-17T00:20:14.327Z,100774.50
2022-09-17T00:22:40.941Z,100767.38
2022-09-17T00:25:08.784Z,100772.69
2022-09-17T00:27:35.450Z,100768.53
2022-09-17T00:30:02.127Z,100773.38
2022-09-17T00:32:28.784Z,100766.56
2022-09-17T00:34:55.486Z,100768.75
2022-09-17T00:37:22.315Z,100756.19
2022-09-17T00:39:49.003Z,100748.72
2022-09-17T00:42:16.732Z,100755.94
2022-09-17T00:44:53.491Z,100757.06
2022-09-17T00:47:25.981Z,100768.34
2022-09-17T00:50:00.680Z,100754.97
2022-09-17T00:52:33.829Z,100765.69
2022-09-17T00:55:06.959Z,100769.38
2022-09-17T00:57:34.056Z,100762.88
2022-09-17T01:00:00.944Z,100767.13
2022-09-17T01:02:27.800Z,100775.66
2022-09-17T01:04:54.894Z,100773.75
2022-09-17T01:07:41.085Z,100772.44
2022-09-17T01:10:16.886Z,100783.81
2022-09-17T01:13:08.049Z,100776.03
2022-09-17T01:15:47.964Z,100774.81
2022-09-17T01:18:22.867Z,100769.38
2022-09-17T01:21:17.188Z,100782.38
2022-09-17T01:23:43.778Z,100779.81
2022-09-17T01:26:13.588Z,100776.22
2022-09-17T01:28:46.109Z,100777.28
2022-09-17T01:31:24.908Z,100780.59
2022-09-17T01:34:12.215Z,100771.69
2022-09-17T01:37:15.970Z,100775.06
2022-09-17T01:39:54.015Z,100786.09
2022-09-17T01:42:59.816Z,100777.09
2022-09-17T01:45:42.588Z,100782.28
2022-09-17T01:48:23.352Z,100780.13
2022-09-17T01:50:53.873Z,100782.97
2022-09-17T01:53:24.929Z,100784.88
2022-09-17T01:55:53.312Z,100778.50
2022-09-17T01:58:27.194Z,100779.06
2022-09-17T02:00:59.007Z,100784.59
2022-09-17T02:03:30.759Z,100793.78
2022-09-17T02:05:57.272Z,100792.75
2022-09-17T02:08:49.068Z,100792.66
2022-09-17T02:11:17.292Z,100809.94
2022-09-17T02:13:55.981Z,100790.25
2022-09-17T02:16:26.050Z,100797.97
2022-09-17T02:19:07.621Z,100792.19
2022-09-17T02:21:46.015Z,100790.84
2022-09-17T02:24:23.717Z,100785.25
2022-09-17T02:27:17.752Z,100787.72
2022-09-17T02:29:45.243Z,100789.16
2022-09-17T02:32:13.054Z,100788.19
2022-09-17T02:34:40.166Z,100792.53
2022-09-17T02:37:07.451Z,100796.91
2022-09-17T02:39:34.395Z,100803.94
2022-09-17T02:42:26.078Z,100800.63
2022-09-17T02:45:34.370Z,100803.38
2022-09-17T02:48:09.898Z,100808.13
2022-09-17T02:50:39.471Z,100806.97
2022-09-17T02:53:15.133Z,100809.84
2022-09-17T02:55:53.164Z,100810.09
2022-09-17T02:58:41.397Z,100804.03
2022-09-17T03:01:15.117Z,100804.28
2022-09-17T03:03:43.902Z,100809.72
2022-09-17T03:06:10.518Z,100812.47
2022-09-17T03:08:40.336Z,100804.41
2022-09-17T03:11:09.297Z,100805.63
2022-09-17T03:13:36.624Z,100801.94
2022-09-17T03:16:03.969Z,100811.13
2022-09-17T03:18:30.745Z,100810.09
2022-09-17T03:20:57.627Z,100808.22
2022-09-17T03:23:24.323Z,100805.66
2022-09-17T03:25:50.897Z,100807.94
2022-09-17T03:28:17.672Z,100808.09
2022-09-17T03:30:45.165Z,100814.28
2022-09-17T03:33:11.785Z,100808.88
2022-09-17T03:35:38.957Z,100802.41
2022-09-17T03:38:05.567Z,100808.69
2022-09-17T03:40:32.184Z,100804.81
2022-09-17T03:42:58.793Z,100811.25
2022-09-17T03:45:25.519Z,100801.66
2022-09-17T03:47:52.110Z,100803.75
2022-09-17T03:50:18.718Z,100810.38
2022-09-17T03:52:45.418Z,100812.31
2022-09-17T03:55:12.048Z,100817.78
2022-09-17T03:57:38.631Z,100826.53
2022-09-17T04:00:06.575Z,100818.56
2022-09-17T04:02:33.453Z,100829.66
2022-09-17T04:05:00.228Z,100825.94
2022-09-17T04:07:26.993Z,100840.38
2022-09-17T04:09:53.641Z,100831.56
2022-09-17T04:12:20.406Z,100840.31
2022-09-17T04:14:47.044Z,100825.38
2022-09-17T04:17:18.174Z,100826.72
2022-09-17T04:19:45.267Z,100829.97
2022-09-17T04:22:11.834Z,100830.13
2022-09-17T04:24:38.425Z,100836.03
2022-09-17T04:27:05.049Z,100843.59
2022-09-17T04:29:31.642Z,100850.63
2022-09-17T04:31:58.218Z,100850.81
2022-09-17T04:34:24.804Z,100849.78
2022-09-17T04:36:51.389Z,100849.78
2022-09-17T04:39:18.002Z,100837.34
2022-09-17T04:41:44.602Z,100836.41
2022-09-17T04:44:11.147Z,100829.38
2022-09-17T04:46:37.803Z,100832.59
2022-09-17T04:49:04.407Z,100843.22
2022-09-17T04:51:31.003Z,100835.63
2022-09-17T04:53:57.620Z,100834.00
2022-09-17T04:56:24.290Z,100842.47
2022-09-17T04:58:50.903Z,100843.03
2022-09-17T05:01:18.917Z,100855.19
2022-09-17T05:03:46.211Z,100844.63
2022-09-17T05:06:12.794Z,100850.34
2022-09-17T05:08:39.627Z,100857.75
2022-09-17T05:11:06.278Z,100852.44
2022-09-17T05:13:33.140Z,100854.16
2022-09-17T05:15:59.864Z,100863.81
2022-09-17T05:18:26.732Z,100861.59
2022-09-17T05:20:53.433Z,100869.28
2022-09-17T05:23:20.390Z,100880.34
2022-09-17T05:25:46.965Z,100879.25
2022-09-17T05:28:13.708Z,100879.03
2022-09-17T05:30:40.676Z,100895.75
2022-09-17T05:33:07.432Z,100888.94
2022-09-17T05:35:36.664Z,100888.56
2022-09-17T05:38:05.433Z,100882.22
2022-09-17T05:40:33.242Z,100889.97
2022-09-17T05:43:01.292Z,100889.78
2022-09-17T05:45:28.555Z,100887.97
2022-09-17T05:47:59.434Z,100872.81
2022-09-17T05:50:26.665Z,100885.41
2022-09-17T05:53:01.366Z,100890.47
2022-09-17T05:55:27.975Z,100888.69
2022-09-17T05:57:57.997Z,100885.91
2022-09-17T06:00:24.655Z,100883.53
2022-09-17T06:03:00.794Z,100883.13
2022-09-17T06:05:27.533Z,100891.84
2022-09-17T06:07:54.117Z,100892.53
2022-09-17T06:10:20.982Z,100906.41
2022-09-17T06:12:47.615Z,100920.44
2022-09-17T06:15:14.857Z,100908.19
2022-09-17T06:17:41.564Z,100913.88
2022-09-17T06:20:09.015Z,100923.91
2022-09-17T06:22:35.642Z,100922.09
2022-09-17T06:25:04.023Z,100922.69
2022-09-17T06:27:32.777Z,100931.69
2022-09-17T06:30:06.415Z,100928.75
2022-09-17T06:32:33.583Z,100927.47
2022-09-17T06:35:00.205Z,100930.56
2022-09-17T06:37:31.586Z,100924.31
2022-09-17T06:39:59.486Z,100935.50
2022-09-17T06:42:26.875Z,100936.13
2022-09-17T06:44:53.472Z,100937.06
2022-09-17T06:47:20.774Z,100939.63
2022-09-17T06:49:47.367Z,100940.81
2022-09-17T06:52:13.923Z,100941.69
2022-09-17T06:54:40.483Z,100948.41
2022-09-17T06:57:07.155Z,100936.47
2022-09-17T06:59:33.718Z,100931.31
2022-09-17T07:02:00.495Z,100935.97
2022-09-17T07:04:27.153Z,100931.41
2022-09-17T07:06:53.780Z,100934.31
2022-09-17T07:09:20.339Z,100944.44
2022-09-17T07:11:46.955Z,100934.56
2022-09-17T07:14:13.759Z,100936.00
2022-09-17T07:16:40.389Z,100937.72
2022-09-17T09:30:41.529Z,100945.13
2022-09-17T09:33:48.059Z,100936.38
2022-09-17T09:38:15.757Z,100940.22
2022-09-17T09:39:56.272Z,100935.84
2022-09-17T09:43:14.651Z,100938.31
2022-09-17T09:46:34.551Z,100936.72
2022-09-17T09:50:01.860Z,100949.09
2022-09-17T09:53:32.425Z,100938.53
2022-09-17T10:04:53.255Z,100927.56
2022-09-17T10:11:20.843Z,100921.47
2022-09-17T10:17:24.110Z,100914.94
2022-09-17T10:20:54.646Z,100913.34
2022-09-17T10:31:19.173Z,100940.06
2022-09-17T10:39:28.735Z,100918.31
2022-09-17T12:30:23.185Z,100918.53
2022-09-17T12:33:04.918Z,100925.44
2022-09-17T12:35:59.734Z,100936.84
2022-09-17T12:38:48.813Z,100924.81
2022-09-17T12:41:27.208Z,100915.56
2022-09-17T12:44:06.895Z,100912.69
2022-09-17T12:47:07.504Z,100912.19
2022-09-17T12:49:54.728Z,100909.53
2022-09-17T12:52:43.104Z,100897.06
2022-09-17T12:55:31.158Z,100899.59
2022-09-17T12:58:03.699Z,100902.28
2022-09-17T13:00:36.645Z,100901.84
2022-09-17T13:03:15.565Z,100902.06
2022-09-17T13:05:55.164Z,100894.41
2022-09-17T13:08:40.786Z,100883.03
2022-09-17T13:11:26.237Z,100897.06
2022-09-17T13:13:56.114Z,100880.69
2022-09-17T13:16:50.419Z,100882.88
2022-09-17T13:19:39.961Z,100886.19
2022-09-17T13:22:17.532Z,100870.25
2022-09-17T13:24:47.398Z,100873.09
2022-09-17T13:27:22.672Z,100867.31
2022-09-17T13:29:55.413Z,100870.50
2022-09-17T13:32:34.828Z,100857.75
2022-09-17T13:35:10.575Z,100869.88
2022-09-17T13:37:42.857Z,100892.28
2022-09-17T13:40:30.686Z,100960.88
2022-09-17T13:43:18.574Z,100942.56
2022-09-17T13:46:12.635Z,100921.47
2022-09-17T13:48:48.868Z,100910.28
2022-09-17T13:51:30.728Z,100902.28
2022-09-17T13:54:02.383Z,100902.09
2022-09-17T13:56:32.180Z,100905.41
2022-09-17T13:59:09.400Z,100902.13
2022-09-17T14:01:59.760Z,100902.56
2022-09-17T14:04:41.678Z,100917.03
2022-09-17T14:07:24.433Z,100916.81
2022-09-17T14:10:01.603Z,100918.16
2022-09-17T14:12:58.688Z,100905.81
2022-09-17T14:15:38.833Z,100922.13
2022-09-17T14:18:27.542Z,100914.22
2022-09-17T14:21:14.568Z,100905.81
2022-09-17T14:23:46.788Z,100913.59
2022-09-17T14:26:52.745Z,100906.81
2022-09-17T14:29:23.457Z,100907.25
2022-09-17T14:31:50.197Z,100899.16
2022-09-17T14:34:21.441Z,100904.06
2022-09-17T14:36:48.477Z,100898.34
2022-09-17T14:39:22.457Z,100896.06
2022-09-17T14:41:49.491Z,100891.91
2022-09-17T14:44:20.073Z,100896.41
2022-09-17T14:47:16.061Z,100895.22
2022-09-17T14:49:43.191Z,100897.44
2022-09-17T14:52:27.645Z,100889.22
2022-09-17T14:55:11.790Z,100900.09
2022-09-17T14:57:38.753Z,100887.44
2022-09-17T15:00:10.857Z,100885.44
2022-09-17T15:02:46.423Z,100896.94
2022-09-17T15:05:21.468Z,100886.03
2022-09-17T15:07:48.238Z,100886.31
2022-09-17T15:10:17.991Z,100883.00
2022-09-17T15:12:45.766Z,100896.03
2022-09-17T15:15:23.663Z,100902.09
2022-09-17T15:17:51.015Z,100893.31
2022-09-17T15:20:23.889Z,100914.28
2022-09-17T15:22:54.827Z,100893.97
2022-09-17T15:25:26.839Z,100899.91
2022-09-17T15:27:56.537Z,100915.25
2022-09-17T15:30:25.132Z,100908.38
2022-09-17T15:32:59.228Z,100903.34
2022-09-17T15:35:30.836Z,100903.09
2022-09-17T15:40:47.481Z,100900.22
2022-09-17T15:43:38.235Z,100903.19
2022-09-17T15:46:37.415Z,100913.31
2022-09-17T15:49:04.587Z,100909.72
2022-09-17T15:51:33.354Z,100900.56
2022-09-17T15:54:06.898Z,100893.22
2022-09-17T15:56:40.502Z,100918.81
2022-09-17T15:59:27.709Z,100919.50
2022-09-17T16:01:56.427Z,100968.25
2022-09-17T16:04:32.018Z,100943.88
2022-09-17T16:07:01.618Z,100952.44
2022-09-17T16:09:50.082Z,100941.97
2022-09-17T16:12:21.473Z,100938.97
2022-09-17T16:14:51.594Z,100942.47
2022-09-17T16:17:21.273Z,100937.25
2022-09-17T16:19:48.139Z,100938.44
2022-09-17T16:22:14.758Z,100925.72
2022-09-17T16:24:41.455Z,100939.47
2022-09-17T16:27:13.690Z,100930.31
2022-09-17T16:29:40.304Z,100933.63
2022-09-17T16:32:10.207Z,100930.75
2022-09-17T16:34:36.878Z,100937.06
2022-09-17T16:37:03.920Z,100945.63
2022-09-17T16:39:30.612Z,100943.25
2022-09-17T16:41:57.237Z,100949.31
2022-09-17T16:44:23.843Z,100935.59
2022-09-17T16:46:50.502Z,100945.19
2022-09-17T16:49:17.378Z,100945.41
2022-09-17T16:51:44.134Z,100948.91
2022-09-17T16:54:10.727Z,100941.25
2022-09-17T16:56:37.414Z,100951.91
2022-09-17T16:59:04.200Z,100944.88
2022-09-17T17:01:31.034Z,100952.34
2022-09-17T17:03:59.702Z,100951.69
2022-09-17T17:06:26.824Z,100956.81
2022-09-17T17:08:53.543Z,100953.69
2022-09-17T17:11:20.171Z,100963.72
2022-09-17T17:13:47.448Z,100957.22
2022-09-17T17:16:15.266Z,100951.53
2022-09-17T17:18:45.243Z,100959.69
2022-09-17T17:21:13.223Z,100951.78
2022-09-17T17:23:40.258Z,100956.78
2022-09-17T17:26:06.916Z,100960.06
2022-09-17T17:28:35.279Z,100957.09
2022-09-17T17:31:03.078Z,100959.97
2022-09-17T17:33:29.967Z,100952.81
2022-09-17T17:36:05.310Z,100957.09
2022-09-17T17:38:34.243Z,100966.06
2022-09-17T17:41:06.961Z,100958.25
2022-09-17T17:43:33.763Z,100969.34
2022-09-17T17:46:00.484Z,100962.09
2022-09-17T17:48:27.553Z,100964.00
2022-09-17T17:50:56.699Z,100969.22
2022-09-17T17:53:23.693Z,100963.97
2022-09-17T17:56:00.758Z,100972.75
2022-09-17T17:58:28.254Z,100962.50
2022-09-17T18:00:55.059Z,100973.38
2022-09-17T18:03:25.192Z,100972.72
2022-09-17T18:05:53.549Z,100971.44
2022-09-17T18:08:20.204Z,100981.06
2022-09-17T18:10:54.480Z,100987.25
2022-09-17T18:13:21.729Z,100990.97
2022-09-17T18:15:57.064Z,100989.38
2022-09-17T18:18:24.863Z,100984.91
2022-09-17T18:20:53.362Z,100987.56
2022-09-17T18:23:21.178Z,100988.50
2022-09-17T18:25:58.969Z,100992.78
2022-09-17T18:28:55.245Z,100989.16
2022-09-17T18:31:54.096Z,100994.56
2022-09-17T18:34:21.150Z,100993.63
2022-09-17T18:36:51.145Z,101002.38
2022-09-17T18:39:57.320Z,101015.22
2022-09-17T18:42:04.794Z,100987.78
2022-09-17T18:44:31.491Z,100998.41
2022-09-17T18:46:58.235Z,100996.78
2022-09-17T18:49:26.988Z,100992.53
2022-09-17T18:51:53.688Z,101005.47
2022-09-17T18:54:20.328Z,101001.63
2022-09-17T18:56:46.925Z,101007.91
2022-09-17T18:59:13.615Z,101005.06
2022-09-17T19:01:40.290Z,101002.06
2022-09-17T19:04:10.178Z,101004.72
2022-09-17T19:06:37.000Z,101006.00
2022-09-17T19:09:05.253Z,101009.22
2022-09-17T19:11:31.974Z,101013.69
2022-09-17T19:13:58.742Z,101007.91
2022-09-17T19:16:25.944Z,101018.88
2022-09-17T19:18:52.711Z,101011.09
2022-09-17T19:21:23.436Z,101023.75
2022-09-17T19:23:56.183Z,101014.03
2022-09-17T19:26:26.095Z,101029.31
2022-09-17T19:28:54.227Z,101028.34
2022-09-17T19:31:21.262Z,101032.91
2022-09-17T19:33:48.114Z,101026.81
2022-09-17T19:36:16.603Z,101032.25
2022-09-17T19:38:43.643Z,101042.28
2022-09-17T19:41:13.433Z,101029.72
2022-09-17T19:43:40.212Z,101033.50
2022-09-17T19:46:15.080Z,101037.03
2022-09-17T19:49:00.639Z,101043.44
2022-09-17T19:51:29.802Z,101044.69
2022-09-17T19:53:57.306Z,101051.06
2022-09-17T19:56:25.829Z,101045.72
2022-09-17T19:58:53.061Z,101047.75
2022-09-17T20:01:20.377Z,101051.06
2022-09-17T20:03:47.423Z,101059.91
2022-09-17T20:06:16.950Z,101053.31
2022-09-17T20:08:47.754Z,101042.56
2022-09-17T20:11:15.298Z,101050.47
2022-09-17T20:13:42.035Z,101054.88
2022-09-17T20:16:15.038Z,101044.91
2022-09-17T20:18:41.936Z,101050.34
2022-09-17T20:21:09.394Z,101041.41
2022-09-17T20:23:36.410Z,101051.38
2022-09-17T20:26:03.767Z,101048.34
2022-09-17T20:28:30.475Z,101054.63
2022-09-17T20:31:05.315Z,101061.56
2022-09-17T20:33:32.908Z,101060.91
2022-09-17T20:36:05.336Z,101054.25
2022-09-17T20:41:20.155Z,101054.72
2022-09-17T20:43:49.101Z,101058.34
2022-09-17T20:46:16.494Z,101056.53
2022-09-17T20:48:43.623Z,101063.09
2022-09-17T20:51:14.422Z,101061.78
2022-09-17T20:53:42.164Z,101075.28
2022-09-17T20:56:14.184Z,101064.66
2022-09-17T20:58:48.368Z,101065.38
2022-09-17T21:01:20.783Z,101075.72
2022-09-17T21:03:52.728Z,101075.72
2022-09-17T21:06:21.820Z,101085.81
2022-09-17T21:08:49.016Z,101071.41
2022-09-17T21:11:16.964Z,101084.47
2022-09-17T21:13:44.065Z,101089.59
2022-09-17T21:16:11.709Z,101069.13
2022-09-17T21:18:39.867Z,101071.44
2022-09-17T21:21:09.167Z,101083.00
2022-09-17T21:23:37.172Z,101076.25
2022-09-17T21:26:11.767Z,101069.59
2022-09-17T21:28:39.502Z,101069.78
2022-09-17T21:31:12.301Z,101070.72
2022-09-17T21:33:39.323Z,101070.16
2022-09-17T21:36:08.400Z,101068.75
2022-09-17T21:38:35.196Z,101070.38
2022-09-17T21:41:08.845Z,101079.56
2022-09-17T21:43:36.155Z,101077.50
2022-09-17T21:46:07.285Z,101084.25
2022-09-17T21:48:37.109Z,101072.91
2022-09-17T21:51:09.204Z,101077.56
2022-09-17T21:53:35.916Z,101074.53
2022-09-17T21:56:07.883Z,101081.56
2022-09-17T21:58:34.576Z,101073.97
2022-09-17T22:01:12.341Z,101073.03
2022-09-17T22:03:42.197Z,101087.06
2022-09-17T22:06:16.609Z,101084.69
2022-09-17T22:08:43.759Z,101072.53
2022-09-17T22:11:24.613Z,101089.22
2022-09-17T22:13:56.534Z,101081.53
2022-09-17T22:16:25.105Z,101081.44
2022-09-17T22:18:52.229Z,101082.31
2022-09-17T22:21:24.231Z,101084.03
2022-09-17T22:23:52.597Z,101085.63
2022-09-17T22:26:21.269Z,101081.97
2022-09-17T22:28:48.950Z,101087.72
2022-09-17T22:31:15.818Z,101078.13
2022-09-17T22:33:44.726Z,101088.78
2022-09-17T22:36:19.220Z,101103.16
2022-09-17T22:38:48.157Z,101097.13
2022-09-17T22:41:20.710Z,101093.31
2022-09-17T22:43:47.816Z,101085.50
2022-09-17T22:46:18.366Z,101087.13
2022-09-17T22:48:45.669Z,101086.69
2022-09-17T22:51:12.558Z,101087.72
2022-09-17T22:53:40.098Z,101085.25
2022-09-17T22:56:14.985Z,101085.78
2022-09-17T22:58:41.957Z,101081.59
2022-09-17T23:01:15.680Z,101076.28
2022-09-17T23:03:43.224Z,101072.34
2022-09-17T23:06:12.315Z,101071.25
2022-09-17T23:08:39.610Z,101065.66
2022-09-17T23:11:08.550Z,101070.97
2022-09-17T23:13:35.645Z,101063.06
2022-09-17T23:16:03.716Z,101069.34
2022-09-17T23:18:30.438Z,101064.28
2022-09-17T23:21:08.533Z,101059.56
2022-09-17T23:23:36.572Z,101061.44
2022-09-17T23:26:23.065Z,101062.03
2022-09-17T23:28:50.360Z,101063.72
2022-09-17T23:31:18.149Z,101061.00
2022-09-17T23:33:45.351Z,101059.09
2022-09-17T23:36:17.108Z,101049.31
2022-09-17T23:38:45.225Z,101067.38
2022-09-17T23:41:20.698Z,101056.13
2022-09-17T23:43:52.769Z,101055.28
2022-09-17T23:46:20.963Z,101062.13
2022-09-17T23:48:48.326Z,101063.16
2022-09-17T23:51:16.638Z,101057.75
2022-09-17T23:53:43.638Z,101051.56
2022-09-17T23:56:13.317Z,101050.06
2022-09-17T23:58:40.385Z,101047.88
